Latest Weather Observations for Macquarie Island*

IDT60801

Issued at 12:02 pm EDT Wednesday 25 January 2017 (issued every 30 minutes, with the page automatically refreshed every 10 minutes)

About weather observations | Map of weather stations | Latest weather observations for ANT | Other Formats
Station Details ID: 300004 Name: MACQUARIE ISLAND Lat: -54.50 Lon: 158.94 Height: 6.0 m
Data from the previous 72 hours. | See also: Recent months at Macquarie Island*
Date/Time
EDT
Temp
°C
App
Temp
°C
Dew
Point
°C
Rel
Hum
%
Delta-T
°C
Wind Press
QNH
hPa
Press
MSL
hPa
Rain since
9am
mm
Dir  Spd
km/h
Gust
km/h
Spd
kts
Gust
kts
25/12:00pm 6.5 -0.6 3.3 80 1.4 SW 30 46 16 25 983.6 - 0.0
25/11:55am 6.6 -0.1 3.6 81 1.3 SW 28 46 15 25 983.6 - 0.0
25/11:30am 6.7 0.4 3.5 80 1.4 SW 26 43 14 23 982.9 - 0.0
25/11:00am 6.2 -1.3 3.2 81 1.3 SSW 32 61 17 33 982.5 - 0.0
25/10:30am 6.2 -3.1 3.0 80 1.3 SSW 41 63 22 34 982.0 - 0.0
25/10:00am 6.1 -2.0 3.1 81 1.2 SSW 35 54 19 29 981.3 - 0.0
25/09:30am 6.1 -2.4 2.9 80 1.3 SSW 37 56 20 30 980.8 - 0.0
25/09:00am 6.0 -2.9 3.3 83 1.1 SSW 39 61 21 33 980.0 980.3 42.2
25/08:30am 5.6 -2.5 3.1 84 1.0 SSW 35 65 19 35 979.7 - 42.2
25/08:00am 5.6 -3.2 3.4 86 0.9 SSW 39 61 21 33 979.3 - 42.2
25/07:30am 5.3 -5.3 3.2 86 0.9 SSW 48 80 26 43 978.4 - 42.2
25/07:20am 5.1 -5.1 3.0 86 0.9 SW 46 72 25 39 978.2 - 42.2
25/07:18am 5.0 -9.9 2.7 85 0.9 SW 70 91 38 49 978.1 - 42.2
25/07:09am 5.0 -5.7 2.7 85 0.9 SSW 48 89 26 48 977.7 - 42.2
25/07:00am 5.1 -4.6 3.1 87 0.8 SSW 43 63 23 34 977.5 - 42.0
25/06:30am 4.9 -4.4 2.9 87 0.8 SSW 41 63 22 34 976.6 - 41.6
25/06:00am 5.1 -6.6 3.3 88 0.8 S 54 76 29 41 975.4 975.7 41.2
25/05:30am 5.0 -7.7 3.2 88 0.7 S 59 80 32 43 974.2 - 40.0
25/05:00am 4.8 -9.0 3.1 89 0.7 S 65 93 35 50 973.0 - 38.6
25/04:30am 4.7 -9.5 3.2 90 0.6 SSW 67 96 36 52 971.7 - 37.8
25/04:00am 4.8 -7.8 3.6 92 0.5 S 59 85 32 46 970.4 - 36.8
25/03:30am 4.9 -8.0 3.9 93 0.4 S 61 87 33 47 969.1 - 35.8
25/03:00am 4.9 -10.2 3.7 92 0.5 S 72 96 39 52 967.9 968.2 35.0
25/02:30am 5.1 -9.9 3.9 92 0.5 S 72 91 39 49 966.6 - 34.4
25/02:00am 4.9 -11.3 3.7 92 0.5 S 78 104 42 56 965.3 - 33.8
25/01:30am 4.9 -12.2 3.7 92 0.5 S 83 107 45 58 964.0 - 33.4
25/01:00am 4.9 -13.3 3.9 93 0.4 S 89 113 48 61 963.1 - 33.0
25/12:30am 4.7 -12.8 3.7 93 0.4 SSE 85 107 46 58 962.1 - 32.6
25/12:00am 4.8 -13.5 3.8 93 0.4 SSE 89 111 48 60 961.6 961.9 31.6
 
Date/Time
EDT
Temp
°C
App
Temp
°C
Dew
Point
°C
Rel
Hum
%
Delta-T
°C
Wind Press
QNH
hPa
Press
MSL
hPa
Rain since
9am
mm
Dir  Spd
km/h
Gust
km/h
Spd
kts
Gust
kts
24/11:30pm 5.0 -12.8 4.0 93 0.4 SSE 87 115 47 62 961.1 - 30.4
24/11:00pm 5.1 -13.9 4.1 93 0.4 SSE 93 115 50 62 960.3 - 29.4
24/10:30pm 5.4 -12.7 4.4 93 0.4 SSE 89 115 48 62 960.1 - 28.2
24/10:00pm 5.3 -13.2 4.3 93 0.4 SSE 91 115 49 62 959.9 - 27.4
24/09:30pm 5.5 -12.2 4.5 93 0.4 SSE 87 117 47 63 960.2 - 26.2
24/09:00pm 5.7 -12.0 4.7 93 0.4 SSE 87 111 47 60 960.5 960.8 25.0
24/08:30pm 5.9 -10.1 4.9 93 0.4 SSE 78 102 42 55 961.3 - 24.2
24/08:00pm 5.8 -10.2 4.6 92 0.5 SSE 78 104 42 56 961.6 - 23.4
24/07:30pm 6.0 -10.0 4.8 92 0.5 SE 78 102 42 55 962.5 - 22.4
24/07:00pm 6.1 -9.9 4.9 92 0.5 SE 78 96 42 52 963.4 - 20.0
24/06:30pm 6.1 -9.5 4.9 92 0.5 SE 76 98 41 53 964.8 - 18.0
24/06:00pm 6.1 -9.5 4.7 91 0.6 SE 76 96 41 52 966.0 966.3 16.0
24/05:31pm 6.4 -7.8 5.0 91 0.6 SE 69 87 37 47 967.6 - 14.0
24/05:30pm 6.4 -8.0 5.0 91 0.6 SE 70 87 38 47 967.7 - 14.0
24/05:01pm 6.5 -7.9 5.1 91 0.6 SE 70 89 38 48 969.2 - 12.8
24/05:00pm 6.5 -7.9 5.1 91 0.6 SE 70 87 38 47 969.2 - 12.8
24/04:41pm 6.5 -7.7 5.1 91 0.6 SE 69 87 37 47 970.5 - 12.2
24/04:30pm 6.6 -7.2 5.4 92 0.5 SE 67 80 36 43 971.5 - 12.0
24/04:00pm 6.7 -5.9 5.5 92 0.5 ESE 61 72 33 39 973.3 - 10.4
24/03:30pm 6.4 -5.6 4.9 90 0.7 ESE 57 72 31 39 974.9 - 8.8
24/03:12pm 6.7 -3.9 5.3 91 0.6 ESE 50 69 27 37 975.6 - 7.6
24/03:00pm 6.8 -3.4 5.4 91 0.6 ESE 48 63 26 34 976.2 976.5 6.8
24/02:39pm 6.7 -3.1 5.2 90 0.7 ESE 46 69 25 37 977.1 - 5.8
24/02:30pm 6.8 -1.7 5.3 90 0.7 ESE 39 54 21 29 977.7 - 5.4
24/02:02pm 7.0 -1.0 5.6 91 0.6 ESE 37 57 20 31 979.3 - 4.2
24/02:00pm 7.0 -0.6 5.6 91 0.6 ESE 35 50 19 27 979.3 - 4.0
24/01:30pm 7.2 0.9 5.8 91 0.6 ESE 28 46 15 25 981.0 - 2.8
24/01:29pm 7.1 0.8 5.7 91 0.6 ESE 28 46 15 25 981.1 - 2.6
24/01:00pm 7.2 1.7 5.7 90 0.7 E 24 35 13 19 982.3 - 1.4
24/12:30pm 7.4 1.9 5.7 89 0.8 E 24 44 13 24 983.3 - 0.6
24/12:00pm 7.4 2.6 5.5 88 0.9 E 20 35 11 19 984.4 984.7 0.0
24/11:30am 7.5 3.3 5.6 88 0.8 E 17 28 9 15 985.1 - 0.0
24/11:00am 7.6 3.1 5.9 89 0.8 E 19 30 10 16 985.7 - 0.0
24/10:30am 7.5 4.4 5.6 88 0.8 SE 11 24 6 13 986.6 - 0.0
24/10:00am 7.4 4.7 5.7 89 0.8 N 9 19 5 10 987.9 - 0.0
24/09:30am 7.5 4.5 5.8 89 0.8 NE 11 24 6 13 988.9 - 0.0
24/09:00am 7.5 2.0 5.8 89 0.8 N 24 35 13 19 989.8 990.1 1.2
24/08:30am 7.4 2.7 5.9 90 0.7 N 20 28 11 15 990.4 - 1.2
24/08:00am 7.5 2.0 5.8 89 0.8 NNE 24 30 13 16 991.2 - 1.2
24/07:30am 7.3 2.6 5.3 87 0.9 NNE 19 26 10 14 991.6 - 1.2
24/07:00am 7.1 3.1 4.9 86 1.0 N 15 24 8 13 992.0 - 1.2
24/06:30am 6.9 3.3 4.9 87 0.9 N 13 17 7 9 992.5 - 1.2
24/06:00am 6.7 2.7 4.9 88 0.8 N 15 19 8 10 992.7 993.0 1.2
24/05:30am 6.6 3.2 4.1 84 1.1 N 11 15 6 8 992.9 - 1.2
24/05:00am 6.6 3.2 3.8 82 1.2 N 11 13 6 7 993.4 - 1.2
24/04:30am 6.6 2.8 3.9 83 1.2 NNW 13 15 7 8 993.7 - 1.2
24/04:00am 6.4 1.7 3.4 81 1.3 NW 17 20 9 11 994.0 - 1.2
24/03:30am 6.4 1.4 3.4 81 1.3 NW 19 20 10 11 994.3 - 1.2
24/03:00am 6.3 0.7 3.3 81 1.3 NW 22 26 12 14 994.4 994.7 1.2
24/02:30am 6.3 -0.5 3.3 81 1.3 NW 28 30 15 16 994.6 - 1.2
24/02:00am 6.4 0.6 2.5 76 1.6 W 22 32 12 17 994.8 - 1.2
24/01:30am 6.4 -0.2 2.1 74 1.7 WNW 26 30 14 16 994.9 - 1.2
24/01:00am 6.6 -1.1 2.5 75 1.7 WNW 32 35 17 19 995.1 - 1.2
24/12:30am 6.7 0.6 2.6 75 1.7 W 24 28 13 15 995.0 - 1.2
24/12:00am 6.7 -1.0 2.4 74 1.8 WNW 32 41 17 22 995.1 995.4 1.2
 
Date/Time
EDT
Temp
°C
App
Temp
°C
Dew
Point
°C
Rel
Hum
%
Delta-T
°C
Wind Press
QNH
hPa
Press
MSL
hPa
Rain since
9am
mm
Dir  Spd
km/h
Gust
km/h
Spd
kts
Gust
kts
23/11:30pm 6.7 -1.5 2.6 75 1.7 WNW 35 44 19 24 995.0 - 1.2
23/11:00pm 6.8 -0.2 2.1 72 1.9 W 28 35 15 19 995.0 - 1.2
23/10:30pm 6.7 -1.1 2.0 72 1.9 W 32 43 17 23 995.0 - 1.2
23/10:00pm 6.8 -1.1 2.3 73 1.8 W 33 44 18 24 994.8 - 1.2
23/09:30pm 6.5 -2.7 1.4 70 2.0 W 39 52 21 28 994.9 - 1.2
23/09:00pm 6.8 -2.2 2.3 73 1.9 W 39 46 21 25 994.8 995.1 1.2
23/08:30pm 6.8 -1.9 2.3 73 1.8 W 37 48 20 26 994.5 - 1.0
23/08:10pm 6.8 -0.9 2.1 72 1.9 W 32 50 17 27 994.3 - 1.0
23/08:00pm 6.9 -1.7 2.4 73 1.9 W 37 50 20 27 994.2 - 1.0
23/07:30pm 6.9 -2.1 2.4 73 1.9 W 39 54 21 29 993.8 - 1.0
23/07:00pm 7.1 -2.7 2.4 72 1.9 W 43 61 23 33 993.4 - 1.0
23/06:30pm 7.2 -1.6 3.6 78 1.5 W 39 57 21 31 993.2 - 1.0
23/06:00pm 7.2 -3.0 3.3 76 1.7 W 46 59 25 32 992.8 993.1 1.0
23/05:30pm 7.8 -2.5 2.9 71 2.1 W 46 65 25 35 992.2 - 1.0
23/05:24pm 7.8 -2.5 2.7 70 2.1 W 46 65 25 35 992.1 - 1.0
23/05:00pm 7.6 -2.0 4.4 80 1.4 W 44 59 24 32 992.2 - 1.0
23/04:30pm 7.1 -2.9 4.1 81 1.3 W 46 65 25 35 991.9 - 1.0
23/04:26pm 7.1 -2.9 4.1 81 1.3 W 46 65 25 35 991.9 - 1.0
23/04:00pm 7.0 -4.6 4.1 82 1.2 W 54 69 29 37 991.5 - 1.0
23/03:35pm 6.4 -3.6 4.2 86 0.9 W 46 65 25 35 991.4 - 0.4
23/03:30pm 6.6 -4.2 3.9 83 1.2 W 50 63 27 34 991.4 - 0.2
23/03:00pm 7.4 -4.2 4.0 79 1.5 W 54 65 29 35 990.7 991.0 0.2
23/02:30pm 8.6 -3.3 4.4 75 1.8 W 56 69 30 37 990.4 - 0.2
23/02:00pm 8.2 -4.3 4.0 75 1.8 W 59 70 32 38 990.0 - 0.2
23/01:30pm 7.5 -5.8 4.1 79 1.5 W 63 76 34 41 989.6 - 0.2
23/01:00pm 7.5 -5.1 3.6 76 1.7 W 59 78 32 42 989.4 - 0.2
23/12:58pm 7.6 -4.6 3.8 77 1.6 W 57 76 31 41 989.4 - 0.2
23/12:30pm 7.7 -3.4 4.7 81 1.3 WNW 52 65 28 35 989.2 - 0.2
23/12:00pm 7.6 -3.5 4.4 80 1.4 W 52 69 28 37 988.9 989.2 0.2
23/11:30am 7.4 -3.6 5.0 85 1.1 W 52 67 28 36 988.8 - 0.2
23/11:00am 7.5 - 4.6 82 1.3 - - - - - 988.5 - 0.2
23/10:30am 7.2 - 5.2 87 0.9 - - - - - 988.2 - 0.2
23/10:00am 8.1 - 6.9 92 0.6 - - - - - 987.7 - 0.0
23/09:30am 8.1 - 6.9 92 0.6 - - - - - 987.5 - 0.0
23/09:00am 7.6 -0.3 6.4 92 0.6 NNW 37 0 20 0 987.3 987.6 4.8
23/08:30am 7.4 6.5 6.2 92 0.5 CALM 0 0 0 0 987.3 - 4.8
23/08:00am 7.5 6.7 6.4 93 0.5 CALM 0 0 0 0 987.4 - 4.6
23/07:30am 7.4 6.5 6.2 92 0.5 CALM 0 0 0 0 987.6 - 4.6
23/07:00am 7.7 6.8 6.2 90 0.7 CALM 0 0 0 0 987.8 - 4.6
23/06:30am 7.6 6.7 6.1 90 0.7 CALM 0 0 0 0 988.0 - 4.6
23/06:00am 7.6 6.8 6.4 92 0.6 CALM 0 0 0 0 988.1 988.4 4.6
23/05:30am 7.7 -1.4 6.6 93 0.5 NNW 44 50 24 27 988.6 - 4.6
23/05:00am 7.8 -1.3 6.6 92 0.6 NNW 44 52 24 28 988.8 - 4.4
23/04:30am 7.7 -0.9 6.5 92 0.5 NNW 41 46 22 25 989.2 - 4.4
23/04:00am 7.6 -0.2 6.5 93 0.5 NNW 37 41 20 22 989.6 - 4.4
23/03:30am 7.6 0.2 6.7 94 0.4 NNW 35 41 19 22 990.0 - 4.4
23/03:00am 7.5 0.0 6.4 93 0.5 NNW 35 41 19 22 990.2 990.5 4.4
23/02:30am 7.6 0.2 6.7 94 0.4 NW 35 43 19 23 990.5 - 4.4
23/02:00am 7.7 0.7 6.8 94 0.4 NW 33 39 18 21 990.7 - 4.4
23/01:30am 7.8 0.1 7.1 95 0.3 NNW 37 43 20 23 990.9 - 4.4
23/01:00am 7.7 -1.2 7.0 95 0.3 N 43 52 23 28 991.1 - 4.2
23/12:30am 7.3 -0.9 6.6 95 0.3 N 39 48 21 26 991.6 - 4.2
23/12:00am 7.1 0.0 6.4 95 0.3 N 33 41 18 22 992.2 992.5 3.8
 
Date/Time
EDT
Temp
°C
App
Temp
°C
Dew
Point
°C
Rel
Hum
%
Delta-T
°C
Wind Press
QNH
hPa
Press
MSL
hPa
Rain since
9am
mm
Dir  Spd
km/h
Gust
km/h
Spd
kts
Gust
kts
22/11:30pm 7.2 0.2 6.1 93 0.5 N 32 41 17 22 992.8 - 3.0
22/11:00pm 7.7 -0.5 6.6 93 0.5 N 39 44 21 24 993.3 - 1.6
22/10:30pm 7.9 0.9 7.0 94 0.4 N 33 37 18 20 993.8 - 0.8
22/10:00pm 8.0 1.2 7.1 94 0.4 N 32 37 17 20 994.2 - 0.6
22/09:30pm 7.9 1.1 7.0 94 0.4 N 32 37 17 20 994.7 - 0.6
22/09:00pm 7.9 1.1 7.0 94 0.4 N 32 33 17 18 995.1 995.4 0.6
22/08:30pm 8.1 0.4 7.2 94 0.4 N 37 48 20 26 995.4 - 0.6
22/08:00pm 8.4 0.7 7.0 91 0.7 N 37 48 20 26 995.8 - 0.2
22/07:30pm 8.5 0.8 7.0 90 0.7 N 37 46 20 25 996.1 - 0.2
22/07:00pm 8.4 2.0 7.0 91 0.7 N 30 39 16 21 996.5 - 0.2
22/06:30pm 8.6 2.6 7.1 90 0.7 N 28 35 15 19 996.9 - 0.2
22/06:00pm 8.8 2.0 7.1 89 0.8 N 32 43 17 23 997.2 997.5 0.2
22/05:30pm 8.9 3.3 7.2 89 0.8 N 26 32 14 17 997.5 - 0.2
22/05:00pm 9.3 3.4 7.4 88 0.9 N 28 35 15 19 997.7 - 0.2
22/04:30pm 9.0 3.4 7.3 89 0.8 N 26 32 14 17 998.2 - 0.2
22/04:00pm 8.9 2.6 7.2 89 0.8 N 30 37 16 20 998.5 - 0.2
22/03:30pm 9.2 3.3 7.5 89 0.8 N 28 35 15 19 998.8 - 0.2
22/03:00pm 9.1 3.9 7.4 89 0.8 N 24 28 13 15 999.3 999.6 0.2
22/02:30pm 8.7 3.5 7.3 91 0.7 N 24 30 13 16 999.6 - 0.0
22/02:00pm 9.0 3.9 7.6 91 0.7 N 24 28 13 15 1000.0 - 0.0
22/01:30pm 8.6 3.4 7.2 91 0.7 N 24 30 13 16 1000.2 - 0.0
22/01:00pm 8.6 3.8 7.2 91 0.7 N 22 26 12 14 1000.4 - 0.0
22/12:30pm 9.1 3.9 7.2 88 0.9 N 24 28 13 15 1000.7 - 0.0

Other Formats:

Comma delimited format used in spreadsheet applications
http://www.bom.gov.au/fwo/IDT60803/IDT60803.94998.axf

JavaScript Object Notation format (JSON) in row-major order
http://www.bom.gov.au/fwo/IDT60803/IDT60803.94998.json